Time;durP1;ratioP1;P1;durP2;ratioP2;P2;SDS_P1;SDS_P2;PMS_P1;PMS_P2;Temp;Humidity;BMP_temperature;BMP_pressure;BME280_temperature;BME280_humidity;BME280_pressure;Samples;Min_cycle;Max_cycle;Signal;HPM_P1;HPM_P2
2023/08/16 00:00:03;;;;;;;4.28;2.25;;;15.00;99.90;;;;;;5124241;27;20087;-78
2023/08/16 00:02:28;;;;;;;7.10;2.72;;;15.00;99.90;;;;;;5131859;27;20069;-78
2023/08/16 00:04:54;;;;;;;3.15;2.78;;;15.00;99.90;;;;;;5122191;27;20475;-77
2023/08/16 00:07:20;;;;;;;3.47;2.55;;;14.90;99.90;;;;;;5133696;27;20167;-78
2023/08/16 00:09:45;;;;;;;2.90;2.67;;;14.90;99.90;;;;;;5139376;27;20122;-78
2023/08/16 00:12:11;;;;;;;3.67;2.85;;;14.90;99.90;;;;;;5136364;27;20120;-78
2023/08/16 00:14:37;;;;;;;3.13;2.47;;;14.90;99.90;;;;;;5123268;27;20054;-76
2023/08/16 00:17:03;;;;;;;2.90;2.50;;;14.80;99.90;;;;;;5122425;27;20055;-78
2023/08/16 00:19:29;;;;;;;3.38;2.65;;;14.80;99.90;;;;;;5124128;27;20424;-79
2023/08/16 00:21:55;;;;;;;3.22;2.92;;;14.70;99.90;;;;;;5123239;27;20059;-76
2023/08/16 00:24:20;;;;;;;6.20;3.35;;;14.70;99.90;;;;;;5130171;27;20042;-79
2023/08/16 00:26:46;;;;;;;3.67;3.10;;;14.70;99.90;;;;;;5141374;27;20095;-78
2023/08/16 00:29:12;;;;;;;4.15;3.55;;;14.70;99.90;;;;;;5142505;27;20524;-78
2023/08/16 00:31:38;;;;;;;6.32;2.92;;;14.70;99.90;;;;;;5140951;27;20086;-79
2023/08/16 00:34:03;;;;;;;3.38;3.05;;;14.70;99.90;;;;;;5142284;27;20270;-80
2023/08/16 00:36:29;;;;;;;3.95;3.20;;;14.60;99.90;;;;;;5139970;27;20081;-78
2023/08/16 00:38:55;;;;;;;4.55;3.33;;;14.60;99.90;;;;;;5122374;27;20038;-78
2023/08/16 00:41:20;;;;;;;3.30;3.00;;;14.60;99.90;;;;;;5134400;27;20055;-78
2023/08/16 00:43:46;;;;;;;4.53;3.70;;;14.50;99.90;;;;;;5121138;27;20057;-80
2023/08/16 00:46:13;;;;;;;3.85;2.97;;;14.50;99.90;;;;;;5121934;27;20060;-78
2023/08/16 00:48:42;;;;;;;4.40;3.25;;;14.50;99.90;;;;;;5102360;28;20047;-78
2023/08/16 00:51:09;;;;;;;3.65;3.30;;;14.50;99.90;;;;;;5122241;27;20169;-79
2023/08/16 00:53:37;;;;;;;4.68;3.92;;;14.40;99.90;;;;;;5128268;27;20078;-78
2023/08/16 00:56:04;;;;;;;4.13;3.72;;;14.40;99.90;;;;;;5122073;27;20103;-81
2023/08/16 00:58:30;;;;;;;4.75;4.22;;;14.30;99.90;;;;;;5121778;27;20045;-78
2023/08/16 01:00:56;;;;;;;6.35;4.05;;;14.30;99.90;;;;;;5114321;27;20051;-78
2023/08/16 01:03:21;;;;;;;3.65;3.20;;;14.20;99.90;;;;;;5132205;27;20506;-78
2023/08/16 01:05:47;;;;;;;3.45;3.05;;;14.20;99.90;;;;;;5123929;27;20073;-77
2023/08/16 01:08:13;;;;;;;3.55;3.25;;;14.10;99.90;;;;;;5132633;27;20122;-78
2023/08/16 01:10:53;;;;;;;5.18;3.50;;;14.10;99.90;;;;;;5140786;27;20038;-79
2023/08/16 01:13:24;;;;;;;6.50;4.22;;;14.10;99.90;;;;;;5135270;27;20043;-77
2023/08/16 01:15:52;;;;;;;3.72;3.42;;;14.10;99.90;;;;;;5112346;28;20050;-77
2023/08/16 01:18:19;;;;;;;4.20;3.60;;;14.10;99.90;;;;;;5121589;27;20150;-77
2023/08/16 01:20:48;;;;;;;3.35;3.05;;;14.10;99.90;;;;;;5121356;27;20117;-78
2023/08/16 01:24:04;;;;;;;4.80;4.32;;;14.10;99.90;;;;;;5100701;27;20090;-78
2023/08/16 01:26:35;;;;;;;5.95;3.67;;;14.10;99.90;;;;;;5084214;27;20055;-78
2023/08/16 01:29:03;;;;;;;3.53;3.22;;;14.10;99.90;;;;;;5132959;27;20047;-77
2023/08/16 01:31:29;;;;;;;3.40;3.10;;;13.70;99.90;;;;;;5113194;27;20111;-78
2023/08/16 01:33:57;;;;;;;4.38;3.55;;;14.10;99.90;;;;;;5117769;27;20035;-79
2023/08/16 01:36:22;;;;;;;3.70;3.20;;;14.00;99.90;;;;;;5124741;27;20054;-78
2023/08/16 01:38:48;;;;;;;5.35;3.10;;;14.00;99.90;;;;;;5109169;27;20043;-79
2023/08/16 01:41:23;;;;;;;4.68;3.53;;;13.90;99.90;;;;;;5125784;27;20054;-77
2023/08/16 01:43:50;;;;;;;3.88;3.40;;;14.00;99.90;;;;;;5125064;27;20039;-78
2023/08/16 01:46:16;;;;;;;3.78;3.05;;;13.90;99.90;;;;;;5137820;27;20054;-78
2023/08/16 01:48:43;;;;;;;5.20;3.50;;;13.90;99.90;;;;;;5125497;27;20556;-78
2023/08/16 01:51:09;;;;;;;3.35;3.05;;;13.90;99.90;;;;;;5125789;27;20073;-78
2023/08/16 01:53:36;;;;;;;5.28;3.30;;;13.80;99.90;;;;;;5124204;27;20039;-78
2023/08/16 01:56:02;;;;;;;5.05;2.72;;;13.80;99.90;;;;;;5125077;27;20042;-78
2023/08/16 01:58:28;;;;;;;4.28;3.28;;;13.80;99.90;;;;;;5124759;27;20066;-80
2023/08/16 02:00:54;;;;;;;4.35;3.05;;;13.80;99.90;;;;;;5125461;27;20051;-79
2023/08/16 02:03:20;;;;;;;5.65;3.45;;;13.80;99.90;;;;;;5145208;27;20131;-77
2023/08/16 02:05:46;;;;;;;3.50;3.20;;;13.80;99.90;;;;;;5124057;27;20126;-77
2023/08/16 02:08:12;;;;;;;5.20;3.33;;;13.80;99.90;;;;;;5128800;27;20047;-79
2023/08/16 02:10:38;;;;;;;4.72;3.88;;;13.80;99.90;;;;;;5128906;27;20099;-80
2023/08/16 02:13:05;;;;;;;7.05;3.80;;;13.80;99.90;;;;;;5128172;27;20081;-83
2023/08/16 02:15:30;;;;;;;5.72;3.50;;;13.80;99.90;;;;;;5139559;27;20297;-82
2023/08/16 02:17:56;;;;;;;6.10;3.70;;;13.80;99.90;;;;;;5117230;27;20499;-82
2023/08/16 02:20:22;;;;;;;3.95;3.35;;;13.80;99.90;;;;;;5126015;27;20050;-82
2023/08/16 02:22:48;;;;;;;6.28;3.40;;;13.70;99.90;;;;;;5135208;27;20047;-84
2023/08/16 02:25:14;;;;;;;3.45;3.15;;;13.70;99.90;;;;;;5139019;27;20620;-84
2023/08/16 02:27:40;;;;;;;5.47;3.60;;;13.70;99.90;;;;;;5117081;27;20051;-82
2023/08/16 02:30:07;;;;;;;4.93;3.50;;;13.70;99.90;;;;;;5125606;27;20046;-82
2023/08/16 02:32:33;;;;;;;3.72;3.03;;;13.60;99.90;;;;;;5132791;27;20041;-83
2023/08/16 02:34:59;;;;;;;3.42;3.13;;;13.60;99.90;;;;;;5128592;27;20069;-82
2023/08/16 02:37:26;;;;;;;3.63;3.25;;;13.60;99.90;;;;;;5133476;27;20051;-83
2023/08/16 02:39:52;;;;;;;3.08;2.80;;;13.50;99.90;;;;;;5123672;27;20081;-83
2023/08/16 02:42:18;;;;;;;3.00;2.75;;;13.50;99.90;;;;;;5124498;27;20157;-83
2023/08/16 02:44:43;;;;;;;6.38;3.90;;;13.50;99.90;;;;;;5135478;27;20051;-84
2023/08/16 02:47:09;;;;;;;4.60;4.20;;;13.40;99.90;;;;;;5133759;27;20100;-82
2023/08/16 02:49:35;;;;;;;4.15;3.47;;;13.40;99.90;;;;;;5110301;27;20051;-83
2023/08/16 02:52:00;;;;;;;6.05;4.25;;;13.40;99.90;;;;;;5124951;27;20096;-82
2023/08/16 02:54:26;;;;;;;4.35;3.83;;;13.40;99.90;;;;;;5131395;27;20035;-82
2023/08/16 02:56:52;;;;;;;3.90;3.53;;;13.40;99.90;;;;;;5133386;27;20053;-82
2023/08/16 02:59:17;;;;;;;4.40;3.05;;;13.40;99.90;;;;;;5128344;27;20078;-83
2023/08/16 03:01:43;;;;;;;4.85;4.22;;;13.40;99.90;;;;;;5123773;27;20892;-83
2023/08/16 03:04:10;;;;;;;3.08;2.83;;;13.30;99.90;;;;;;5125841;27;20049;-83
2023/08/16 03:06:35;;;;;;;4.25;3.30;;;13.30;99.90;;;;;;5114663;27;20459;-84
2023/08/16 03:09:01;;;;;;;4.32;3.95;;;13.30;99.90;;;;;;5108055;27;20043;-83
2023/08/16 03:11:27;;;;;;;4.85;4.32;;;13.30;99.90;;;;;;5107581;27;20047;-83
2023/08/16 03:13:53;;;;;;;5.82;4.10;;;13.20;99.90;;;;;;5116598;27;20069;-83
2023/08/16 03:16:18;;;;;;;5.45;4.07;;;13.20;99.90;;;;;;5137205;27;20664;-83
2023/08/16 03:18:44;;;;;;;4.38;3.85;;;13.10;99.90;;;;;;5113006;27;20647;-83
2023/08/16 03:21:10;;;;;;;4.38;3.83;;;13.10;99.90;;;;;;5143982;27;20111;-82
2023/08/16 03:23:35;;;;;;;4.03;3.38;;;13.00;99.90;;;;;;5143259;27;20034;-82
2023/08/16 03:26:01;;;;;;;4.25;3.70;;;13.10;99.90;;;;;;5138143;27;20049;-82
2023/08/16 03:28:27;;;;;;;4.25;3.85;;;13.10;99.90;;;;;;5115686;27;20130;-82
2023/08/16 03:30:52;;;;;;;3.35;3.05;;;13.00;99.90;;;;;;5126935;27;20126;-82
2023/08/16 03:33:18;;;;;;;4.35;3.72;;;13.00;99.90;;;;;;5109616;27;20404;-82
2023/08/16 03:35:44;;;;;;;5.95;4.18;;;13.00;99.90;;;;;;5126371;27;20043;-84
2023/08/16 03:38:09;;;;;;;4.78;4.28;;;13.00;99.90;;;;;;5139869;27;20504;-81
2023/08/16 03:40:35;;;;;;;9.63;4.60;;;13.00;99.90;;;;;;5140269;27;20201;-83
2023/08/16 03:43:00;;;;;;;6.63;5.10;;;13.00;99.90;;;;;;5108486;27;20530;-83
2023/08/16 03:45:26;;;;;;;5.45;4.45;;;13.00;99.90;;;;;;5142696;27;20039;-82
2023/08/16 03:47:55;;;;;;;10.60;8.50;;;13.00;99.90;;;;;;5135906;27;20049;-81
2023/08/16 03:50:21;;;;;;;12.23;8.18;;;13.10;99.90;;;;;;5107799;27;20813;-81
2023/08/16 03:52:47;;;;;;;10.20;7.68;;;13.20;99.90;;;;;;5094067;27;20055;-82
2023/08/16 03:55:12;;;;;;;7.45;5.90;;;13.30;99.90;;;;;;5141906;27;20845;-83
2023/08/16 03:57:38;;;;;;;8.70;7.25;;;13.30;99.90;;;;;;5136560;27;20047;-85
2023/08/16 04:00:11;;;;;;;11.85;8.00;;;13.30;99.90;;;;;;5125048;27;20047;-85
2023/08/16 04:02:37;;;;;;;14.13;8.18;;;13.40;99.90;;;;;;5104743;27;20050;-82
2023/08/16 04:05:11;;;;;;;11.27;8.38;;;13.40;99.90;;;;;;5111035;27;20074;-80
2023/08/16 04:07:38;;;;;;;12.00;8.50;;;13.50;99.90;;;;;;5122813;27;20069;-81
2023/08/16 04:10:04;;;;;;;10.18;8.23;;;13.60;99.90;;;;;;5115916;27;20047;-85
2023/08/16 04:12:30;;;;;;;10.07;7.35;;;13.70;99.90;;;;;;5113426;27;20043;-81
2023/08/16 04:14:56;;;;;;;8.23;7.28;;;13.70;99.90;;;;;;5144983;27;20050;-83
2023/08/16 04:17:22;;;;;;;7.20;6.50;;;13.60;99.90;;;;;;5118691;27;20093;-82
2023/08/16 04:19:47;;;;;;;9.60;6.85;;;13.60;99.90;;;;;;5134736;27;20049;-82
2023/08/16 04:22:13;;;;;;;6.65;5.95;;;13.50;99.90;;;;;;5107270;27;20051;-84
2023/08/16 04:24:39;;;;;;;6.57;5.95;;;13.50;99.90;;;;;;5122876;27;20055;-85
2023/08/16 04:27:05;;;;;;;6.70;6.10;;;13.50;99.90;;;;;;5122541;27;20566;-81
2023/08/16 04:29:31;;;;;;;7.68;5.40;;;13.50;99.90;;;;;;5114958;27;20515;-87
2023/08/16 04:31:57;;;;;;;7.60;5.95;;;13.50;99.90;;;;;;5112516;27;20191;-82
2023/08/16 04:34:23;;;;;;;6.60;5.90;;;13.50;99.90;;;;;;5134230;27;20487;-82
2023/08/16 04:36:48;;;;;;;10.38;6.13;;;13.50;99.90;;;;;;5128390;27;20364;-82
2023/08/16 04:39:14;;;;;;;7.30;6.30;;;13.50;99.90;;;;;;5131770;27;20066;-83
2023/08/16 04:41:40;;;;;;;11.50;9.63;;;13.60;99.90;;;;;;5107709;27;20054;-81
2023/08/16 04:44:06;;;;;;;11.38;8.38;;;13.70;99.90;;;;;;5098079;27;20058;-82
2023/08/16 04:46:32;;;;;;;13.23;9.73;;;13.80;99.90;;;;;;5131510;27;20047;-82
2023/08/16 04:48:58;;;;;;;12.38;8.90;;;13.90;99.90;;;;;;5115913;27;20046;-81
2023/08/16 04:51:23;;;;;;;9.73;7.90;;;14.00;99.90;;;;;;5132162;27;20111;-83
2023/08/16 04:53:49;;;;;;;12.07;9.60;;;14.10;99.90;;;;;;5133344;27;20479;-82
2023/08/16 04:56:15;;;;;;;11.98;8.43;;;14.10;99.90;;;;;;5103681;28;20050;-82
2023/08/16 04:58:40;;;;;;;13.73;9.77;;;14.20;99.90;;;;;;5105850;27;20046;-83
2023/08/16 05:01:06;;;;;;;9.40;7.13;;;14.20;99.90;;;;;;5122480;27;20070;-82
2023/08/16 05:03:32;;;;;;;11.65;7.78;;;14.30;99.90;;;;;;5137802;27;20047;-82
2023/08/16 05:06:02;;;;;;;9.05;6.05;;;14.30;99.90;;;;;;5132254;27;20047;-82
2023/08/16 05:08:28;;;;;;;8.80;6.57;;;14.30;99.90;;;;;;5116341;27;20049;-81
2023/08/16 05:10:56;;;;;;;6.45;5.80;;;14.20;99.90;;;;;;5140523;27;20050;-81
2023/08/16 05:13:21;;;;;;;8.93;5.90;;;14.30;99.90;;;;;;5117252;27;20121;-81
2023/08/16 05:15:47;;;;;;;8.30;6.78;;;14.20;99.90;;;;;;5116276;27;20546;-81
2023/08/16 05:18:13;;;;;;;9.88;5.40;;;14.20;99.90;;;;;;5140603;27;20104;-82
2023/08/16 05:20:39;;;;;;;6.53;5.10;;;14.30;99.90;;;;;;5130317;27;20147;-84
2023/08/16 05:23:04;;;;;;;6.18;5.57;;;14.30;99.90;;;;;;5134566;27;20042;-82
2023/08/16 05:25:30;;;;;;;6.00;4.85;;;14.40;99.90;;;;;;5129037;27;20114;-82
2023/08/16 05:27:58;;;;;;;6.05;4.75;;;14.40;99.90;;;;;;5145715;27;20050;-83
2023/08/16 05:30:25;;;;;;;6.15;5.53;;;14.40;99.90;;;;;;5139980;27;20055;-87
2023/08/16 05:32:54;;;;;;;7.20;5.43;;;14.50;99.90;;;;;;5106423;27;20049;-84
2023/08/16 05:35:19;;;;;;;6.22;5.55;;;14.50;99.90;;;;;;5137312;27;20063;-81
2023/08/16 05:37:45;;;;;;;8.55;5.95;;;14.50;99.90;;;;;;5131557;27;20051;-79
2023/08/16 05:40:11;;;;;;;7.07;6.30;;;14.60;99.90;;;;;;5119222;27;20082;-81
2023/08/16 05:42:38;;;;;;;7.55;6.78;;;14.70;99.90;;;;;;5124230;27;20062;-79
2023/08/16 05:45:05;;;;;;;8.98;7.55;;;14.80;99.90;;;;;;5124207;27;20046;-81
2023/08/16 05:47:31;;;;;;;9.07;8.15;;;14.80;99.90;;;;;;5133389;27;20051;-82
2023/08/16 05:49:58;;;;;;;10.23;7.65;;;14.90;99.90;;;;;;5131243;27;20045;-79
2023/08/16 05:52:24;;;;;;;11.80;7.95;;;15.00;99.90;;;;;;5135580;27;20051;-84
2023/08/16 05:54:50;;;;;;;11.90;8.20;;;15.00;99.90;;;;;;5094470;27;20236;-80
2023/08/16 05:57:16;;;;;;;10.25;7.53;;;15.10;99.90;;;;;;5121009;27;20048;-80
2023/08/16 05:59:41;;;;;;;10.55;8.20;;;15.20;99.90;;;;;;5121340;27;20047;-80
2023/08/16 06:02:07;;;;;;;8.70;7.80;;;15.30;99.90;;;;;;5121581;27;20122;-80
2023/08/16 06:04:34;;;;;;;8.57;6.68;;;15.40;99.90;;;;;;5121118;27;20905;-80
2023/08/16 06:07:01;;;;;;;9.32;7.07;;;15.50;99.90;;;;;;5122090;27;20208;-80
2023/08/16 06:09:26;;;;;;;10.32;8.70;;;15.70;99.90;;;;;;5134605;27;20054;-80
2023/08/16 06:11:52;;;;;;;9.52;7.93;;;15.80;99.90;;;;;;5115552;27;20098;-80
2023/08/16 06:14:18;;;;;;;8.18;6.72;;;15.90;99.90;;;;;;5119944;27;20124;-79
2023/08/16 06:16:45;;;;;;;8.75;7.25;;;16.00;99.90;;;;;;5109566;27;20090;-83
2023/08/16 06:19:10;;;;;;;8.23;7.43;;;16.20;99.90;;;;;;5135304;27;20155;-81
2023/08/16 06:21:36;;;;;;;8.35;7.55;;;16.30;99.90;;;;;;5141238;27;20050;-80
2023/08/16 06:24:03;;;;;;;12.02;7.07;;;16.40;99.90;;;;;;5127065;27;20471;-79
2023/08/16 06:26:29;;;;;;;9.23;6.47;;;16.60;99.90;;;;;;5128290;27;20055;-83
2023/08/16 06:28:55;;;;;;;11.10;7.82;;;16.70;99.90;;;;;;5135858;27;20049;-83
2023/08/16 06:31:20;;;;;;;8.82;7.18;;;16.80;99.90;;;;;;5128906;27;20161;-80
2023/08/16 06:33:46;;;;;;;8.15;6.30;;;16.90;99.90;;;;;;5127466;27;20194;-79
2023/08/16 06:36:13;;;;;;;9.65;7.05;;;17.10;99.90;;;;;;5126665;27;20786;-84
2023/08/16 06:38:38;;;;;;;9.90;6.90;;;17.20;99.90;;;;;;5121611;27;20059;-80
2023/08/16 06:41:04;;;;;;;8.25;6.20;;;17.30;99.90;;;;;;5135441;27;20103;-82
2023/08/16 06:43:30;;;;;;;7.25;6.28;;;17.40;99.90;;;;;;5141382;27;20770;-79
2023/08/16 06:45:56;;;;;;;7.90;6.78;;;17.50;99.90;;;;;;5141109;27;20055;-81
2023/08/16 06:48:22;;;;;;;8.35;6.03;;;17.60;99.90;;;;;;5129517;27;20499;-79
2023/08/16 06:50:48;;;;;;;7.88;6.43;;;17.70;99.90;;;;;;5141639;27;20047;-85
2023/08/16 06:53:14;;;;;;;7.97;6.45;;;18.00;99.90;;;;;;5104756;27;20078;-82
2023/08/16 06:55:40;;;;;;;10.40;7.43;;;18.00;99.90;;;;;;5116543;27;20146;-78
2023/08/16 06:58:06;;;;;;;7.55;5.90;;;18.30;99.90;;;;;;5134709;27;20042;-80
2023/08/16 07:00:32;;;;;;;8.45;5.72;;;18.50;99.90;;;;;;5126812;27;20499;-80
2023/08/16 07:03:02;;;;;;;5.75;5.15;;;18.80;99.90;;;;;;5124003;27;20122;-80
2023/08/16 07:05:28;;;;;;;6.68;6.03;;;18.90;99.90;;;;;;5111279;27;20050;-82
2023/08/16 07:07:55;;;;;;;7.13;6.20;;;19.00;99.90;;;;;;5126333;27;20201;-81
2023/08/16 07:10:21;;;;;;;8.90;6.65;;;19.00;99.90;;;;;;5128959;27;20102;-80
2023/08/16 07:12:47;;;;;;;7.18;6.43;;;19.10;99.90;;;;;;5134138;27;20068;-79
2023/08/16 07:15:13;;;;;;;6.72;5.85;;;19.30;99.90;;;;;;5129604;27;20507;-85
2023/08/16 07:17:39;;;;;;;8.32;5.75;;;19.70;99.90;;;;;;5137066;27;20043;-81
2023/08/16 07:20:08;;;;;;;10.15;6.53;;;20.40;99.90;;;;;;5122655;27;20043;-78
2023/08/16 07:22:38;;;;;;;7.60;4.70;;;20.90;99.90;;;;;;5128317;27;20069;-79
2023/08/16 07:25:08;;;;;;;9.55;5.88;;;21.80;99.90;;;;;;5136178;27;20056;-80
2023/08/16 07:27:34;;;;;;;6.00;5.38;;;23.20;99.90;;;;;;5141252;27;20061;-80
2023/08/16 07:30:00;;;;;;;7.30;5.45;;;24.30;99.90;;;;;;5136235;27;20092;-80
2023/08/16 07:32:26;;;;;;;6.25;5.10;;;25.10;99.90;;;;;;5131377;27;20055;-81
2023/08/16 07:34:51;;;;;;;6.43;4.55;;;25.40;99.90;;;;;;5130066;27;20495;-81
2023/08/16 07:37:21;;;;;;;4.65;4.20;;;24.80;99.90;;;;;;5145779;27;20054;-83
2023/08/16 07:39:46;;;;;;;6.97;3.97;;;24.80;99.90;;;;;;5131631;27;20054;-81
2023/08/16 07:42:12;;;;;;;4.00;3.60;;;25.60;99.90;;;;;;5144193;27;20105;-79
2023/08/16 07:44:38;;;;;;;5.60;3.67;;;26.60;99.90;;;;;;5120034;27;20038;-82
2023/08/16 07:47:04;;;;;;;5.25;3.10;;;27.70;99.90;;;;;;5141474;27;20150;-83
2023/08/16 07:49:29;;;;;;;4.03;3.03;;;28.50;99.90;;;;;;5126671;27;20035;-79
2023/08/16 07:51:56;;;;;;;3.60;3.00;;;29.10;99.90;;;;;;5132068;27;20093;-76
2023/08/16 07:54:22;;;;;;;3.33;2.47;;;29.00;99.90;;;;;;5133587;27;20043;-79
2023/08/16 07:56:48;;;;;;;3.45;2.53;;;28.50;99.60;;;;;;5142087;27;20048;-79
2023/08/16 07:59:13;;;;;;;3.65;2.30;;;27.90;99.60;;;;;;5136330;27;20051;-78
2023/08/16 08:01:43;;;;;;;3.40;2.58;;;27.40;99.80;;;;;;5135283;27;20787;-77
2023/08/16 08:04:09;;;;;;;2.55;1.83;;;27.40;99.90;;;;;;5108980;27;20502;-79
2023/08/16 08:06:35;;;;;;;6.18;2.60;;;27.40;99.90;;;;;;5118889;27;20057;-78
2023/08/16 08:09:02;;;;;;;2.65;2.10;;;27.50;99.50;;;;;;5084962;27;20047;-80
2023/08/16 08:11:28;;;;;;;2.58;2.38;;;27.80;99.30;;;;;;5131968;27;20113;-76
2023/08/16 08:13:53;;;;;;;2.65;2.35;;;27.90;99.00;;;;;;5126882;27;20052;-81
2023/08/16 08:16:19;;;;;;;4.00;2.08;;;27.50;98.60;;;;;;5133243;27;20046;-80
2023/08/16 08:18:45;;;;;;;3.83;2.08;;;26.70;98.80;;;;;;5124498;27;20744;-77
2023/08/16 08:21:11;;;;;;;3.42;1.95;;;26.00;98.90;;;;;;5120367;27;20055;-83
2023/08/16 08:23:37;;;;;;;4.40;1.90;;;25.70;99.30;;;;;;5119976;27;20126;-81
2023/08/16 08:26:03;;;;;;;2.78;2.08;;;26.70;99.10;;;;;;5122523;27;20034;-81
2023/08/16 08:28:29;;;;;;;3.67;2.30;;;27.60;98.20;;;;;;5119920;27;20050;-81
2023/08/16 08:30:55;;;;;;;2.28;2.00;;;27.90;97.30;;;;;;5096098;27;20047;-84
2023/08/16 08:33:21;;;;;;;5.13;2.17;;;27.40;97.00;;;;;;5120635;27;20046;-81
2023/08/16 08:35:48;;;;;;;4.82;2.03;;;27.10;96.80;;;;;;5132355;27;20047;-79
2023/08/16 08:38:14;;;;;;;3.17;1.60;;;26.30;96.80;;;;;;5103051;27;20047;-79
2023/08/16 08:40:40;;;;;;;4.43;2.00;;;25.50;97.30;;;;;;5139979;27;20074;-78
2023/08/16 08:43:06;;;;;;;4.25;2.10;;;24.90;98.10;;;;;;5126985;27;20130;-79
2023/08/16 08:45:33;;;;;;;2.42;1.63;;;25.30;98.30;;;;;;5120757;27;20088;-80
2023/08/16 08:48:00;;;;;;;2.58;1.42;;;25.60;97.50;;;;;;5127627;27;20050;-83
2023/08/16 08:50:29;;;;;;;1.52;1.42;;;25.60;97.20;;;;;;5141300;27;20057;-81
2023/08/16 08:53:00;;;;;;;3.13;1.42;;;25.00;96.10;;;;;;5131144;27;20103;-81
2023/08/16 08:55:32;;;;;;;4.32;1.42;;;24.80;97.00;;;;;;5125242;27;20867;-79
2023/08/16 08:58:01;;;;;;;4.55;1.50;;;24.80;97.10;;;;;;5123110;27;20058;-77
2023/08/16 09:00:29;;;;;;;3.10;1.63;;;25.50;96.90;;;;;;5109346;27;20054;-78
2023/08/16 09:02:56;;;;;;;3.50;1.35;;;26.40;96.60;;;;;;5131139;27;20039;-77
2023/08/16 09:05:22;;;;;;;3.20;1.50;;;27.00;95.60;;;;;;5136394;27;20050;-78
2023/08/16 09:07:48;;;;;;;1.50;1.40;;;26.90;95.20;;;;;;5133640;27;20046;-78
2023/08/16 09:10:15;;;;;;;3.50;1.60;;;27.90;95.20;;;;;;5101789;27;20482;-80
2023/08/16 09:12:42;;;;;;;3.88;1.73;;;28.40;94.70;;;;;;5135157;27;20038;-78
2023/08/16 09:15:09;;;;;;;3.33;1.65;;;28.10;94.90;;;;;;5125422;27;20039;-79
2023/08/16 09:17:35;;;;;;;2.88;1.25;;;27.60;94.90;;;;;;5102997;28;20749;-79
2023/08/16 09:20:01;;;;;;;1.95;1.50;;;26.70;94.90;;;;;;5134837;27;20394;-79
2023/08/16 09:22:29;;;;;;;2.15;1.65;;;25.90;96.00;;;;;;5128110;27;20521;-79
2023/08/16 09:24:56;;;;;;;1.88;1.70;;;25.50;96.50;;;;;;5134969;27;20058;-79
2023/08/16 09:27:22;;;;;;;1.98;1.40;;;25.10;96.60;;;;;;5128584;27;20055;-82
2023/08/16 09:29:53;;;;;;;2.25;1.40;;;24.70;96.90;;;;;;5122140;27;20054;-79
2023/08/16 09:32:19;;;;;;;3.75;1.70;;;24.70;97.00;;;;;;5126807;27;20054;-79
2023/08/16 09:34:45;;;;;;;3.45;1.90;;;24.20;96.60;;;;;;5128080;27;20043;-79
2023/08/16 09:37:12;;;;;;;1.90;1.40;;;24.00;97.10;;;;;;5103022;28;20053;-80
2023/08/16 09:39:38;;;;;;;3.53;1.88;;;23.70;97.50;;;;;;5134499;27;20050;-81
2023/08/16 09:42:10;;;;;;;2.88;2.10;;;23.60;97.70;;;;;;5127958;27;20115;-80
2023/08/16 09:44:37;;;;;;;3.10;1.42;;;23.70;97.80;;;;;;5139216;27;20085;-79
2023/08/16 09:47:15;;;;;;;3.47;1.98;;;23.90;97.80;;;;;;5140152;27;20070;-78
2023/08/16 09:49:43;;;;;;;4.00;2.10;;;24.10;97.30;;;;;;5123018;27;20046;-80
2023/08/16 09:52:12;;;;;;;5.90;2.13;;;24.00;97.50;;;;;;5121638;27;20051;-80
2023/08/16 09:54:38;;;;;;;2.10;1.90;;;24.20;97.40;;;;;;5131846;27;20065;-78
2023/08/16 09:57:04;;;;;;;3.35;2.22;;;24.20;97.30;;;;;;5123757;27;20764;-80
2023/08/16 09:59:34;;;;;;;3.58;2.05;;;24.20;97.20;;;;;;5108025;27;20053;-79
2023/08/16 10:02:00;;;;;;;2.28;1.63;;;24.10;97.40;;;;;;5141922;27;20445;-78
2023/08/16 10:04:27;;;;;;;2.80;1.90;;;24.10;97.50;;;;;;5113686;27;20051;-81
2023/08/16 10:06:54;;;;;;;4.20;2.85;;;24.50;97.10;;;;;;5130863;27;20043;-78
2023/08/16 10:09:21;;;;;;;4.40;2.15;;;25.60;96.40;;;;;;5133799;27;20051;-79
2023/08/16 10:11:48;;;;;;;2.60;2.15;;;26.20;95.90;;;;;;5129481;27;20123;-79
2023/08/16 10:14:14;;;;;;;2.47;2.28;;;26.60;95.60;;;;;;5139323;27;20118;-79
2023/08/16 10:16:42;;;;;;;3.67;2.38;;;26.90;95.60;;;;;;5137266;27;20056;-78
2023/08/16 10:19:15;;;;;;;4.05;2.83;;;27.40;95.30;;;;;;5130095;27;20038;-78
2023/08/16 10:21:46;;;;;;;3.53;2.33;;;28.10;94.80;;;;;;5144377;27;20054;-81
2023/08/16 10:24:15;;;;;;;3.15;2.30;;;28.50;94.50;;;;;;5131820;27;20043;-79
2023/08/16 10:26:46;;;;;;;3.65;2.38;;;28.20;94.40;;;;;;5111443;27;20051;-81
2023/08/16 10:29:14;;;;;;;2.92;2.05;;;27.90;94.20;;;;;;5126520;27;20180;-79
2023/08/16 10:31:43;;;;;;;4.45;2.42;;;28.30;94.50;;;;;;5106553;27;20083;-79
2023/08/16 10:34:14;;;;;;;3.15;2.70;;;28.60;94.00;;;;;;5145324;27;20058;-79
2023/08/16 10:36:40;;;;;;;7.70;2.75;;;28.60;94.20;;;;;;5141178;27;20572;-78
2023/08/16 10:39:07;;;;;;;7.00;2.70;;;28.70;94.00;;;;;;5125215;27;20155;-79
2023/08/16 10:41:42;;;;;;;3.50;2.40;;;28.60;93.80;;;;;;5137638;27;20082;-78
2023/08/16 10:44:11;;;;;;;4.10;2.38;;;28.70;93.00;;;;;;5106359;27;20047;-78
2023/08/16 10:46:37;;;;;;;2.35;2.15;;;28.50;93.30;;;;;;5122184;27;20405;-79
2023/08/16 10:49:11;;;;;;;2.88;2.58;;;28.70;93.50;;;;;;5115664;27;20049;-79
2023/08/16 10:51:48;;;;;;;3.05;2.40;;;28.50;93.10;;;;;;5137527;27;20047;-79
2023/08/16 10:54:15;;;;;;;2.78;2.38;;;28.50;92.70;;;;;;5127118;27;20043;-80
2023/08/16 10:56:47;;;;;;;3.67;2.65;;;28.30;93.00;;;;;;5115646;27;20115;-80
2023/08/16 10:59:14;;;;;;;7.30;3.10;;;27.90;93.00;;;;;;5131856;27;20054;-78
2023/08/16 11:01:48;;;;;;;3.33;2.65;;;27.40;93.30;;;;;;5134277;27;20050;-79
2023/08/16 11:04:14;;;;;;;1.85;1.52;;;27.00;92.70;;;;;;5139296;27;20047;-80
2023/08/16 11:06:40;;;;;;;2.97;1.70;;;26.50;93.10;;;;;;5137506;27;20047;-79
2023/08/16 11:09:07;;;;;;;2.05;1.73;;;25.90;93.10;;;;;;5125384;27;20094;-80
2023/08/16 11:11:33;;;;;;;3.70;1.60;;;25.70;92.60;;;;;;5113384;27;20049;-79
2023/08/16 11:14:02;;;;;;;2.90;1.50;;;25.50;92.60;;;;;;5130794;27;20043;-80
2023/08/16 11:16:29;;;;;;;1.90;1.20;;;25.20;92.70;;;;;;5113528;27;20050;-77
2023/08/16 11:18:59;;;;;;;1.33;1.05;;;25.10;92.70;;;;;;5112512;27;20055;-79
2023/08/16 11:21:25;;;;;;;1.95;1.77;;;24.70;93.10;;;;;;5137065;27;20047;-79
2023/08/16 11:23:54;;;;;;;1.35;1.25;;;24.50;93.30;;;;;;5126633;27;20636;-79
2023/08/16 11:26:20;;;;;;;2.15;1.52;;;24.70;93.20;;;;;;5128893;27;20377;-80
2023/08/16 11:28:46;;;;;;;1.98;1.50;;;24.60;93.20;;;;;;5125175;27;20562;-79
2023/08/16 11:31:12;;;;;;;3.15;1.55;;;24.50;93.70;;;;;;5125500;27;20068;-78
2023/08/16 11:33:42;;;;;;;3.65;1.73;;;24.50;93.70;;;;;;5107247;27;20054;-79
2023/08/16 11:36:11;;;;;;;2.60;2.40;;;24.60;93.50;;;;;;5136508;27;20056;-79
2023/08/16 11:38:38;;;;;;;2.78;1.42;;;24.40;93.50;;;;;;5140957;27;20079;-80
2023/08/16 11:41:05;;;;;;;2.92;1.60;;;24.40;93.70;;;;;;5135427;27;20039;-79
2023/08/16 11:43:32;;;;;;;4.38;1.58;;;24.90;93.80;;;;;;5130263;27;20051;-80
2023/08/16 11:45:59;;;;;;;3.47;1.40;;;24.50;94.00;;;;;;5128290;27;20388;-77
2023/08/16 11:48:26;;;;;;;1.58;1.27;;;24.40;94.00;;;;;;5129260;27;20073;-80
2023/08/16 11:50:52;;;;;;;3.72;2.33;;;24.40;93.90;;;;;;5123174;27;20405;-80
2023/08/16 11:53:19;;;;;;;3.00;1.50;;;24.50;93.60;;;;;;5125903;27;20116;-78
2023/08/16 11:56:01;;;;;;;1.50;1.15;;;24.40;93.60;;;;;;5122093;27;20139;-79
2023/08/16 11:58:27;;;;;;;2.45;1.40;;;24.60;94.10;;;;;;5122879;27;20046;-79
2023/08/16 12:00:53;;;;;;;2.85;1.63;;;24.70;93.90;;;;;;5123976;27;20129;-79
2023/08/16 12:03:19;;;;;;;2.17;1.50;;;24.80;93.90;;;;;;5123053;27;20126;-80
2023/08/16 12:05:48;;;;;;;1.63;1.27;;;24.90;93.90;;;;;;5112956;27;20759;-81
2023/08/16 12:08:19;;;;;;;2.58;1.60;;;24.70;93.80;;;;;;5104172;27;20062;-80
2023/08/16 12:10:53;;;;;;;1.50;1.40;;;24.50;93.90;;;;;;5136902;27;20042;-79
2023/08/16 12:13:20;;;;;;;3.58;1.85;;;24.50;93.80;;;;;;5125776;27;20043;-80
2023/08/16 12:15:46;;;;;;;1.42;1.20;;;24.30;94.00;;;;;;5132448;27;20047;-79
2023/08/16 12:18:15;;;;;;;2.60;1.30;;;24.50;94.30;;;;;;5116376;27;20046;-80
2023/08/16 12:20:42;;;;;;;2.42;1.65;;;24.70;94.40;;;;;;5121844;27;20054;-80
2023/08/16 12:23:11;;;;;;;3.75;1.45;;;24.70;94.20;;;;;;5123354;27;20075;-79
2023/08/16 12:25:37;;;;;;;2.78;1.48;;;24.90;94.00;;;;;;5113734;27;20047;-79
2023/08/16 12:28:03;;;;;;;2.05;1.40;;;25.20;94.00;;;;;;5123698;27;20153;-78
2023/08/16 12:30:29;;;;;;;1.98;1.65;;;25.40;94.30;;;;;;5126536;27;20888;-80
2023/08/16 12:32:55;;;;;;;1.75;1.20;;;24.90;93.60;;;;;;5121696;27;20047;-80
2023/08/16 12:35:21;;;;;;;1.67;1.30;;;24.40;93.70;;;;;;5115826;27;20468;-79
2023/08/16 12:37:47;;;;;;;2.05;1.60;;;24.20;94.00;;;;;;5112455;27;20069;-80
2023/08/16 12:40:13;;;;;;;2.90;1.30;;;24.40;94.40;;;;;;5137135;27;20050;-80
2023/08/16 12:42:39;;;;;;;7.40;1.50;;;24.40;93.90;;;;;;5107199;27;20062;-80